<?xml version="1.0" encoding="UTF-8" standalone="no" ?>
<gpx xmlns="http://www.topografix.com/GPX/1/1" xmlns:xsi="http://www.w3.org/2001/XMLSchema-instance" xsi:schemaLocation="http://www.topografix.com/GPX/1/1 http://www.topografix.com/GPX/1/1/gpx.xsd" version="1.1" creator="VisuGPX - https://www.visugpx.com">
  <metadata>
    <name>83 - M - ROQUEBRUNE</name>
    <desc><![CDATA[83 - M - ROQUEBRUNE : les 3 croix
2026-05-20]]></desc>
  </metadata>
  <wpt lat="43.44813" lon="6.63242">
    <ele>66</ele>
    <name><![CDATA[Point de passage 1]]></name>
    <type><![CDATA[GENERIC]]></type>
  </wpt>
  <wpt lat="43.44833" lon="6.63251">
    <ele>57</ele>
    <name><![CDATA[Point de passage 2]]></name>
    <type><![CDATA[GENERIC]]></type>
  </wpt>
  <trk>
    <name><![CDATA[Roquebrune les 3 croix, mercredi]]></name>
    <trkseg>
      <trkpt lat="43.44813" lon="6.63242">
        <ele>66</ele>
        <time>2026-05-20T12:14:51.000Z</time>
      </trkpt>
      <trkpt lat="43.44809" lon="6.63234">
        <ele>73</ele>
        <time>2026-05-20T12:14:54.000Z</time>
      </trkpt>
      <trkpt lat="43.44803" lon="6.63205">
        <ele>57</ele>
        <time>2026-05-20T12:15:33.000Z</time>
      </trkpt>
      <trkpt lat="43.44806" lon="6.63174">
        <ele>58</ele>
        <time>2026-05-20T12:15:54.000Z</time>
      </trkpt>
      <trkpt lat="43.44812" lon="6.63144">
        <ele>61</ele>
        <time>2026-05-20T12:16:18.000Z</time>
      </trkpt>
      <trkpt lat="43.44819" lon="6.63114">
        <ele>61</ele>
        <time>2026-05-20T12:16:39.000Z</time>
      </trkpt>
      <trkpt lat="43.44826" lon="6.63082">
        <ele>59</ele>
        <time>2026-05-20T12:17:00.000Z</time>
      </trkpt>
      <trkpt lat="43.44832" lon="6.6305">
        <ele>60</ele>
        <time>2026-05-20T12:17:21.000Z</time>
      </trkpt>
      <trkpt lat="43.44838" lon="6.6302">
        <ele>60</ele>
        <time>2026-05-20T12:17:42.000Z</time>
      </trkpt>
      <trkpt lat="43.44844" lon="6.62988">
        <ele>60</ele>
        <time>2026-05-20T12:18:03.000Z</time>
      </trkpt>
      <trkpt lat="43.44851" lon="6.62956">
        <ele>59</ele>
        <time>2026-05-20T12:18:24.000Z</time>
      </trkpt>
      <trkpt lat="43.44857" lon="6.62923">
        <ele>59</ele>
        <time>2026-05-20T12:18:45.000Z</time>
      </trkpt>
      <trkpt lat="43.44862" lon="6.6289">
        <ele>59</ele>
        <time>2026-05-20T12:19:06.000Z</time>
      </trkpt>
      <trkpt lat="43.44867" lon="6.62858">
        <ele>58</ele>
        <time>2026-05-20T12:19:27.000Z</time>
      </trkpt>
      <trkpt lat="43.44872" lon="6.62826">
        <ele>58</ele>
        <time>2026-05-20T12:19:48.000Z</time>
      </trkpt>
      <trkpt lat="43.44877" lon="6.62795">
        <ele>58</ele>
        <time>2026-05-20T12:20:06.000Z</time>
      </trkpt>
      <trkpt lat="43.44881" lon="6.62761">
        <ele>58</ele>
        <time>2026-05-20T12:20:27.000Z</time>
      </trkpt>
      <trkpt lat="43.44887" lon="6.62731">
        <ele>58</ele>
        <time>2026-05-20T12:20:45.000Z</time>
      </trkpt>
      <trkpt lat="43.4489" lon="6.62698">
        <ele>58</ele>
        <time>2026-05-20T12:21:06.000Z</time>
      </trkpt>
      <trkpt lat="43.4489" lon="6.62666">
        <ele>58</ele>
        <time>2026-05-20T12:21:30.000Z</time>
      </trkpt>
      <trkpt lat="43.44886" lon="6.62632">
        <ele>58</ele>
        <time>2026-05-20T12:21:51.000Z</time>
      </trkpt>
      <trkpt lat="43.44884" lon="6.62598">
        <ele>58</ele>
        <time>2026-05-20T12:22:12.000Z</time>
      </trkpt>
      <trkpt lat="43.44884" lon="6.62566">
        <ele>58</ele>
        <time>2026-05-20T12:22:30.000Z</time>
      </trkpt>
      <trkpt lat="43.44882" lon="6.62531">
        <ele>58</ele>
        <time>2026-05-20T12:22:51.000Z</time>
      </trkpt>
      <trkpt lat="43.44881" lon="6.62497">
        <ele>58</ele>
        <time>2026-05-20T12:23:12.000Z</time>
      </trkpt>
      <trkpt lat="43.44879" lon="6.62464">
        <ele>58</ele>
        <time>2026-05-20T12:23:30.000Z</time>
      </trkpt>
      <trkpt lat="43.44875" lon="6.6243">
        <ele>58</ele>
        <time>2026-05-20T12:23:51.000Z</time>
      </trkpt>
      <trkpt lat="43.44869" lon="6.62397">
        <ele>58</ele>
        <time>2026-05-20T12:24:12.000Z</time>
      </trkpt>
      <trkpt lat="43.44866" lon="6.62365">
        <ele>58</ele>
        <time>2026-05-20T12:24:30.000Z</time>
      </trkpt>
      <trkpt lat="43.44866" lon="6.62333">
        <ele>58</ele>
        <time>2026-05-20T12:24:48.000Z</time>
      </trkpt>
      <trkpt lat="43.44864" lon="6.623">
        <ele>59</ele>
        <time>2026-05-20T12:25:11.000Z</time>
      </trkpt>
      <trkpt lat="43.44849" lon="6.62277">
        <ele>59</ele>
        <time>2026-05-20T12:25:32.000Z</time>
      </trkpt>
      <trkpt lat="43.4483" lon="6.62261">
        <ele>59</ele>
        <time>2026-05-20T12:25:50.000Z</time>
      </trkpt>
      <trkpt lat="43.44809" lon="6.62246">
        <ele>59</ele>
        <time>2026-05-20T12:26:08.000Z</time>
      </trkpt>
      <trkpt lat="43.4479" lon="6.62226">
        <ele>59</ele>
        <time>2026-05-20T12:26:26.000Z</time>
      </trkpt>
      <trkpt lat="43.44776" lon="6.62202">
        <ele>58</ele>
        <time>2026-05-20T12:26:44.000Z</time>
      </trkpt>
      <trkpt lat="43.44761" lon="6.62179">
        <ele>58</ele>
        <time>2026-05-20T12:27:05.000Z</time>
      </trkpt>
      <trkpt lat="43.44743" lon="6.6216">
        <ele>58</ele>
        <time>2026-05-20T12:27:26.000Z</time>
      </trkpt>
      <trkpt lat="43.44724" lon="6.62141">
        <ele>58</ele>
        <time>2026-05-20T12:27:47.000Z</time>
      </trkpt>
      <trkpt lat="43.44707" lon="6.6212">
        <ele>58</ele>
        <time>2026-05-20T12:28:05.000Z</time>
      </trkpt>
      <trkpt lat="43.4469" lon="6.62096">
        <ele>58</ele>
        <time>2026-05-20T12:28:26.000Z</time>
      </trkpt>
      <trkpt lat="43.4467" lon="6.62079">
        <ele>59</ele>
        <time>2026-05-20T12:28:47.000Z</time>
      </trkpt>
      <trkpt lat="43.44646" lon="6.62071">
        <ele>59</ele>
        <time>2026-05-20T12:29:08.000Z</time>
      </trkpt>
      <trkpt lat="43.44621" lon="6.62065">
        <ele>59</ele>
        <time>2026-05-20T12:29:29.000Z</time>
      </trkpt>
      <trkpt lat="43.44599" lon="6.6206">
        <ele>59</ele>
        <time>2026-05-20T12:29:47.000Z</time>
      </trkpt>
      <trkpt lat="43.44574" lon="6.62055">
        <ele>59</ele>
        <time>2026-05-20T12:30:08.000Z</time>
      </trkpt>
      <trkpt lat="43.44549" lon="6.62048">
        <ele>59</ele>
        <time>2026-05-20T12:30:29.000Z</time>
      </trkpt>
      <trkpt lat="43.44526" lon="6.62039">
        <ele>60</ele>
        <time>2026-05-20T12:30:50.000Z</time>
      </trkpt>
      <trkpt lat="43.44504" lon="6.6203">
        <ele>60</ele>
        <time>2026-05-20T12:31:08.000Z</time>
      </trkpt>
      <trkpt lat="43.44481" lon="6.62022">
        <ele>60</ele>
        <time>2026-05-20T12:31:26.000Z</time>
      </trkpt>
      <trkpt lat="43.44459" lon="6.6202">
        <ele>60</ele>
        <time>2026-05-20T12:31:44.000Z</time>
      </trkpt>
      <trkpt lat="43.44436" lon="6.62023">
        <ele>60</ele>
        <time>2026-05-20T12:32:03.000Z</time>
      </trkpt>
      <trkpt lat="43.44414" lon="6.62021">
        <ele>60</ele>
        <time>2026-05-20T12:32:21.000Z</time>
      </trkpt>
      <trkpt lat="43.44396" lon="6.61999">
        <ele>60</ele>
        <time>2026-05-20T12:32:45.000Z</time>
      </trkpt>
      <trkpt lat="43.44385" lon="6.61969">
        <ele>60</ele>
        <time>2026-05-20T12:33:06.000Z</time>
      </trkpt>
      <trkpt lat="43.44376" lon="6.6194">
        <ele>60</ele>
        <time>2026-05-20T12:33:24.000Z</time>
      </trkpt>
      <trkpt lat="43.44372" lon="6.6191">
        <ele>59</ele>
        <time>2026-05-20T12:34:18.000Z</time>
      </trkpt>
      <trkpt lat="43.4437" lon="6.61877">
        <ele>59</ele>
        <time>2026-05-20T12:34:45.000Z</time>
      </trkpt>
      <trkpt lat="43.44371" lon="6.61846">
        <ele>59</ele>
        <time>2026-05-20T12:35:06.000Z</time>
      </trkpt>
      <trkpt lat="43.4437" lon="6.61815">
        <ele>59</ele>
        <time>2026-05-20T12:35:30.000Z</time>
      </trkpt>
      <trkpt lat="43.44369" lon="6.61783">
        <ele>60</ele>
        <time>2026-05-20T12:35:51.000Z</time>
      </trkpt>
      <trkpt lat="43.44363" lon="6.61751">
        <ele>61</ele>
        <time>2026-05-20T12:36:12.000Z</time>
      </trkpt>
      <trkpt lat="43.44358" lon="6.61719">
        <ele>63</ele>
        <time>2026-05-20T12:36:36.000Z</time>
      </trkpt>
      <trkpt lat="43.44355" lon="6.61687">
        <ele>66</ele>
        <time>2026-05-20T12:37:03.000Z</time>
      </trkpt>
      <trkpt lat="43.44353" lon="6.61655">
        <ele>68</ele>
        <time>2026-05-20T12:37:48.000Z</time>
      </trkpt>
      <trkpt lat="43.44359" lon="6.61624">
        <ele>71</ele>
        <time>2026-05-20T12:38:27.000Z</time>
      </trkpt>
      <trkpt lat="43.44374" lon="6.61601">
        <ele>74</ele>
        <time>2026-05-20T12:38:54.000Z</time>
      </trkpt>
      <trkpt lat="43.44379" lon="6.61572">
        <ele>77</ele>
        <time>2026-05-20T12:39:24.000Z</time>
      </trkpt>
      <trkpt lat="43.44384" lon="6.61541">
        <ele>79</ele>
        <time>2026-05-20T12:39:54.000Z</time>
      </trkpt>
      <trkpt lat="43.44394" lon="6.61514">
        <ele>82</ele>
        <time>2026-05-20T12:40:21.000Z</time>
      </trkpt>
      <trkpt lat="43.44411" lon="6.61493">
        <ele>84</ele>
        <time>2026-05-20T12:40:51.000Z</time>
      </trkpt>
      <trkpt lat="43.44428" lon="6.61471">
        <ele>87</ele>
        <time>2026-05-20T12:41:15.000Z</time>
      </trkpt>
      <trkpt lat="43.44435" lon="6.61444">
        <ele>89</ele>
        <time>2026-05-20T12:41:45.000Z</time>
      </trkpt>
      <trkpt lat="43.44422" lon="6.6142">
        <ele>92</ele>
        <time>2026-05-20T12:42:21.000Z</time>
      </trkpt>
      <trkpt lat="43.44401" lon="6.61407">
        <ele>94</ele>
        <time>2026-05-20T12:44:09.000Z</time>
      </trkpt>
      <trkpt lat="43.4438" lon="6.61398">
        <ele>97</ele>
        <time>2026-05-20T12:44:33.000Z</time>
      </trkpt>
      <trkpt lat="43.44362" lon="6.61381">
        <ele>99</ele>
        <time>2026-05-20T12:45:00.000Z</time>
      </trkpt>
      <trkpt lat="43.44356" lon="6.61355">
        <ele>101</ele>
        <time>2026-05-20T12:45:30.000Z</time>
      </trkpt>
      <trkpt lat="43.4437" lon="6.61341">
        <ele>104</ele>
        <time>2026-05-20T12:46:03.000Z</time>
      </trkpt>
      <trkpt lat="43.44388" lon="6.6135">
        <ele>106</ele>
        <time>2026-05-20T12:46:36.000Z</time>
      </trkpt>
      <trkpt lat="43.44401" lon="6.61328">
        <ele>109</ele>
        <time>2026-05-20T12:47:06.000Z</time>
      </trkpt>
      <trkpt lat="43.44408" lon="6.61297">
        <ele>111</ele>
        <time>2026-05-20T12:47:33.000Z</time>
      </trkpt>
      <trkpt lat="43.44404" lon="6.61266">
        <ele>113</ele>
        <time>2026-05-20T12:48:15.000Z</time>
      </trkpt>
      <trkpt lat="43.44386" lon="6.61246">
        <ele>115</ele>
        <time>2026-05-20T12:48:42.000Z</time>
      </trkpt>
      <trkpt lat="43.44364" lon="6.61237">
        <ele>117</ele>
        <time>2026-05-20T12:49:06.000Z</time>
      </trkpt>
      <trkpt lat="43.44342" lon="6.61233">
        <ele>119</ele>
        <time>2026-05-20T12:49:33.000Z</time>
      </trkpt>
      <trkpt lat="43.44324" lon="6.61215">
        <ele>121</ele>
        <time>2026-05-20T12:49:57.000Z</time>
      </trkpt>
      <trkpt lat="43.4432" lon="6.61186">
        <ele>123</ele>
        <time>2026-05-20T12:50:21.000Z</time>
      </trkpt>
      <trkpt lat="43.44325" lon="6.61155">
        <ele>124</ele>
        <time>2026-05-20T12:50:48.000Z</time>
      </trkpt>
      <trkpt lat="43.44326" lon="6.61122">
        <ele>126</ele>
        <time>2026-05-20T12:51:13.000Z</time>
      </trkpt>
      <trkpt lat="43.44315" lon="6.61096">
        <ele>128</ele>
        <time>2026-05-20T12:51:37.000Z</time>
      </trkpt>
      <trkpt lat="43.443" lon="6.61073">
        <ele>130</ele>
        <time>2026-05-20T12:52:01.000Z</time>
      </trkpt>
      <trkpt lat="43.44289" lon="6.61045">
        <ele>132</ele>
        <time>2026-05-20T12:52:22.000Z</time>
      </trkpt>
      <trkpt lat="43.44277" lon="6.61018">
        <ele>134</ele>
        <time>2026-05-20T12:52:49.000Z</time>
      </trkpt>
      <trkpt lat="43.44265" lon="6.60992">
        <ele>135</ele>
        <time>2026-05-20T12:55:49.000Z</time>
      </trkpt>
      <trkpt lat="43.4426" lon="6.60961">
        <ele>135</ele>
        <time>2026-05-20T12:56:37.000Z</time>
      </trkpt>
      <trkpt lat="43.44253" lon="6.60928">
        <ele>136</ele>
        <time>2026-05-20T12:57:01.000Z</time>
      </trkpt>
      <trkpt lat="43.44242" lon="6.60898">
        <ele>136</ele>
        <time>2026-05-20T12:57:22.000Z</time>
      </trkpt>
      <trkpt lat="43.44228" lon="6.60873">
        <ele>136</ele>
        <time>2026-05-20T12:57:40.000Z</time>
      </trkpt>
      <trkpt lat="43.44208" lon="6.60855">
        <ele>136</ele>
        <time>2026-05-20T12:58:01.000Z</time>
      </trkpt>
      <trkpt lat="43.44188" lon="6.60835">
        <ele>136</ele>
        <time>2026-05-20T12:58:25.000Z</time>
      </trkpt>
      <trkpt lat="43.44173" lon="6.60811">
        <ele>136</ele>
        <time>2026-05-20T12:58:46.000Z</time>
      </trkpt>
      <trkpt lat="43.44169" lon="6.6078">
        <ele>136</ele>
        <time>2026-05-20T12:59:07.000Z</time>
      </trkpt>
      <trkpt lat="43.44172" lon="6.60745">
        <ele>136</ele>
        <time>2026-05-20T12:59:28.000Z</time>
      </trkpt>
      <trkpt lat="43.44174" lon="6.60711">
        <ele>136</ele>
        <time>2026-05-20T12:59:49.000Z</time>
      </trkpt>
      <trkpt lat="43.44177" lon="6.60676">
        <ele>136</ele>
        <time>2026-05-20T13:00:10.000Z</time>
      </trkpt>
      <trkpt lat="43.44183" lon="6.60646">
        <ele>136</ele>
        <time>2026-05-20T13:00:37.000Z</time>
      </trkpt>
      <trkpt lat="43.4419" lon="6.60614">
        <ele>137</ele>
        <time>2026-05-20T13:01:10.000Z</time>
      </trkpt>
      <trkpt lat="43.44199" lon="6.60583">
        <ele>138</ele>
        <time>2026-05-20T13:01:34.000Z</time>
      </trkpt>
      <trkpt lat="43.44203" lon="6.60552">
        <ele>139</ele>
        <time>2026-05-20T13:01:55.000Z</time>
      </trkpt>
      <trkpt lat="43.44207" lon="6.60519">
        <ele>140</ele>
        <time>2026-05-20T13:02:19.000Z</time>
      </trkpt>
      <trkpt lat="43.44208" lon="6.60488">
        <ele>142</ele>
        <time>2026-05-20T13:02:46.000Z</time>
      </trkpt>
      <trkpt lat="43.44207" lon="6.60456">
        <ele>143</ele>
        <time>2026-05-20T13:03:07.000Z</time>
      </trkpt>
      <trkpt lat="43.44206" lon="6.60425">
        <ele>145</ele>
        <time>2026-05-20T13:03:31.000Z</time>
      </trkpt>
      <trkpt lat="43.44211" lon="6.60394">
        <ele>147</ele>
        <time>2026-05-20T13:03:58.000Z</time>
      </trkpt>
      <trkpt lat="43.44224" lon="6.60366">
        <ele>148</ele>
        <time>2026-05-20T13:04:22.000Z</time>
      </trkpt>
      <trkpt lat="43.44231" lon="6.60335">
        <ele>151</ele>
        <time>2026-05-20T13:04:46.000Z</time>
      </trkpt>
      <trkpt lat="43.44233" lon="6.60304">
        <ele>153</ele>
        <time>2026-05-20T13:05:10.000Z</time>
      </trkpt>
      <trkpt lat="43.44237" lon="6.60274">
        <ele>156</ele>
        <time>2026-05-20T13:05:46.000Z</time>
      </trkpt>
      <trkpt lat="43.44248" lon="6.60246">
        <ele>158</ele>
        <time>2026-05-20T13:06:19.000Z</time>
      </trkpt>
      <trkpt lat="43.44258" lon="6.60217">
        <ele>160</ele>
        <time>2026-05-20T13:07:31.000Z</time>
      </trkpt>
      <trkpt lat="43.44266" lon="6.60187">
        <ele>162</ele>
        <time>2026-05-20T13:07:58.000Z</time>
      </trkpt>
      <trkpt lat="43.4428" lon="6.60161">
        <ele>164</ele>
        <time>2026-05-20T13:08:22.000Z</time>
      </trkpt>
      <trkpt lat="43.44301" lon="6.60146">
        <ele>166</ele>
        <time>2026-05-20T13:08:46.000Z</time>
      </trkpt>
      <trkpt lat="43.44324" lon="6.60136">
        <ele>167</ele>
        <time>2026-05-20T13:09:25.000Z</time>
      </trkpt>
      <trkpt lat="43.44342" lon="6.60119">
        <ele>169</ele>
        <time>2026-05-20T13:09:46.000Z</time>
      </trkpt>
      <trkpt lat="43.44358" lon="6.60098">
        <ele>172</ele>
        <time>2026-05-20T13:10:07.000Z</time>
      </trkpt>
      <trkpt lat="43.44367" lon="6.6007">
        <ele>175</ele>
        <time>2026-05-20T13:10:31.000Z</time>
      </trkpt>
      <trkpt lat="43.44368" lon="6.6004">
        <ele>178</ele>
        <time>2026-05-20T13:10:52.000Z</time>
      </trkpt>
      <trkpt lat="43.44373" lon="6.60008">
        <ele>181</ele>
        <time>2026-05-20T13:11:19.000Z</time>
      </trkpt>
      <trkpt lat="43.44386" lon="6.59981">
        <ele>183</ele>
        <time>2026-05-20T13:11:52.000Z</time>
      </trkpt>
      <trkpt lat="43.44403" lon="6.59959">
        <ele>185</ele>
        <time>2026-05-20T13:12:19.000Z</time>
      </trkpt>
      <trkpt lat="43.44417" lon="6.59935">
        <ele>187</ele>
        <time>2026-05-20T13:12:40.000Z</time>
      </trkpt>
      <trkpt lat="43.44428" lon="6.59907">
        <ele>189</ele>
        <time>2026-05-20T13:13:01.000Z</time>
      </trkpt>
      <trkpt lat="43.44443" lon="6.59882">
        <ele>191</ele>
        <time>2026-05-20T13:13:22.000Z</time>
      </trkpt>
      <trkpt lat="43.44455" lon="6.59854">
        <ele>193</ele>
        <time>2026-05-20T13:13:46.000Z</time>
      </trkpt>
      <trkpt lat="43.44474" lon="6.5984">
        <ele>196</ele>
        <time>2026-05-20T13:14:13.000Z</time>
      </trkpt>
      <trkpt lat="43.44496" lon="6.59834">
        <ele>199</ele>
        <time>2026-05-20T13:14:37.000Z</time>
      </trkpt>
      <trkpt lat="43.44518" lon="6.59822">
        <ele>202</ele>
        <time>2026-05-20T13:15:04.000Z</time>
      </trkpt>
      <trkpt lat="43.4454" lon="6.59809">
        <ele>205</ele>
        <time>2026-05-20T13:15:31.000Z</time>
      </trkpt>
      <trkpt lat="43.44562" lon="6.59809">
        <ele>208</ele>
        <time>2026-05-20T13:17:25.000Z</time>
      </trkpt>
      <trkpt lat="43.44583" lon="6.5982">
        <ele>210</ele>
        <time>2026-05-20T13:17:55.000Z</time>
      </trkpt>
      <trkpt lat="43.44605" lon="6.59827">
        <ele>212</ele>
        <time>2026-05-20T13:18:25.000Z</time>
      </trkpt>
      <trkpt lat="43.44628" lon="6.59821">
        <ele>214</ele>
        <time>2026-05-20T13:20:16.000Z</time>
      </trkpt>
      <trkpt lat="43.4465" lon="6.59809">
        <ele>216</ele>
        <time>2026-05-20T13:20:40.000Z</time>
      </trkpt>
      <trkpt lat="43.4467" lon="6.59793">
        <ele>218</ele>
        <time>2026-05-20T13:21:04.000Z</time>
      </trkpt>
      <trkpt lat="43.44691" lon="6.59785">
        <ele>220</ele>
        <time>2026-05-20T13:21:25.000Z</time>
      </trkpt>
      <trkpt lat="43.44708" lon="6.59801">
        <ele>222</ele>
        <time>2026-05-20T13:21:55.000Z</time>
      </trkpt>
      <trkpt lat="43.44709" lon="6.59831">
        <ele>224</ele>
        <time>2026-05-20T13:25:49.000Z</time>
      </trkpt>
      <trkpt lat="43.44706" lon="6.59862">
        <ele>225</ele>
        <time>2026-05-20T13:26:19.000Z</time>
      </trkpt>
      <trkpt lat="43.44701" lon="6.59892">
        <ele>227</ele>
        <time>2026-05-20T13:26:43.000Z</time>
      </trkpt>
      <trkpt lat="43.44681" lon="6.5991">
        <ele>228</ele>
        <time>2026-05-20T13:27:04.000Z</time>
      </trkpt>
      <trkpt lat="43.44662" lon="6.59929">
        <ele>230</ele>
        <time>2026-05-20T13:27:28.000Z</time>
      </trkpt>
      <trkpt lat="43.44649" lon="6.59958">
        <ele>232</ele>
        <time>2026-05-20T13:27:49.000Z</time>
      </trkpt>
      <trkpt lat="43.44642" lon="6.5999">
        <ele>234</ele>
        <time>2026-05-20T13:28:10.000Z</time>
      </trkpt>
      <trkpt lat="43.44639" lon="6.60022">
        <ele>236</ele>
        <time>2026-05-20T13:28:34.000Z</time>
      </trkpt>
      <trkpt lat="43.44635" lon="6.60054">
        <ele>237</ele>
        <time>2026-05-20T13:28:58.000Z</time>
      </trkpt>
      <trkpt lat="43.44642" lon="6.60083">
        <ele>239</ele>
        <time>2026-05-20T13:29:31.000Z</time>
      </trkpt>
      <trkpt lat="43.44659" lon="6.60102">
        <ele>240</ele>
        <time>2026-05-20T13:29:56.000Z</time>
      </trkpt>
      <trkpt lat="43.4468" lon="6.60108">
        <ele>241</ele>
        <time>2026-05-20T13:30:23.000Z</time>
      </trkpt>
      <trkpt lat="43.44696" lon="6.60087">
        <ele>243</ele>
        <time>2026-05-20T13:30:47.000Z</time>
      </trkpt>
      <trkpt lat="43.44717" lon="6.60075">
        <ele>245</ele>
        <time>2026-05-20T13:31:17.000Z</time>
      </trkpt>
      <trkpt lat="43.44739" lon="6.60071">
        <ele>248</ele>
        <time>2026-05-20T13:31:47.000Z</time>
      </trkpt>
      <trkpt lat="43.44761" lon="6.60081">
        <ele>253</ele>
        <time>2026-05-20T13:32:17.000Z</time>
      </trkpt>
      <trkpt lat="43.44782" lon="6.60094">
        <ele>259</ele>
        <time>2026-05-20T13:32:47.000Z</time>
      </trkpt>
      <trkpt lat="43.44803" lon="6.60108">
        <ele>267</ele>
        <time>2026-05-20T13:33:20.000Z</time>
      </trkpt>
      <trkpt lat="43.44821" lon="6.60129">
        <ele>275</ele>
        <time>2026-05-20T13:34:14.000Z</time>
      </trkpt>
      <trkpt lat="43.44827" lon="6.60159">
        <ele>285</ele>
        <time>2026-05-20T13:38:38.000Z</time>
      </trkpt>
      <trkpt lat="43.44835" lon="6.60187">
        <ele>296</ele>
        <time>2026-05-20T13:39:41.000Z</time>
      </trkpt>
      <trkpt lat="43.44839" lon="6.60217">
        <ele>309</ele>
        <time>2026-05-20T13:41:20.000Z</time>
      </trkpt>
      <trkpt lat="43.44847" lon="6.60245">
        <ele>323</ele>
        <time>2026-05-20T13:43:14.000Z</time>
      </trkpt>
      <trkpt lat="43.44851" lon="6.60276">
        <ele>335</ele>
        <time>2026-05-20T13:45:05.000Z</time>
      </trkpt>
      <trkpt lat="43.44853" lon="6.60306">
        <ele>348</ele>
        <time>2026-05-20T13:46:53.000Z</time>
      </trkpt>
      <trkpt lat="43.44863" lon="6.60333">
        <ele>361</ele>
        <time>2026-05-20T13:56:01.000Z</time>
      </trkpt>
      <trkpt lat="43.44867" lon="6.60363">
        <ele>370</ele>
        <time>2026-05-20T13:57:55.000Z</time>
      </trkpt>
      <trkpt lat="43.44879" lon="6.60384">
        <ele>379</ele>
        <time>2026-05-20T14:01:13.000Z</time>
      </trkpt>
      <trkpt lat="43.44898" lon="6.6038">
        <ele>381</ele>
        <time>2026-05-20T14:02:52.000Z</time>
      </trkpt>
      <trkpt lat="43.44913" lon="6.6039">
        <ele>378</ele>
        <time>2026-05-20T14:05:55.000Z</time>
      </trkpt>
      <trkpt lat="43.44898" lon="6.60381">
        <ele>373</ele>
        <time>2026-05-20T14:16:55.000Z</time>
      </trkpt>
      <trkpt lat="43.44877" lon="6.60379">
        <ele>364</ele>
        <time>2026-05-20T14:20:46.000Z</time>
      </trkpt>
      <trkpt lat="43.44865" lon="6.60355">
        <ele>356</ele>
        <time>2026-05-20T14:24:52.000Z</time>
      </trkpt>
      <trkpt lat="43.44855" lon="6.60327">
        <ele>346</ele>
        <time>2026-05-20T14:27:55.000Z</time>
      </trkpt>
      <trkpt lat="43.44849" lon="6.60296">
        <ele>336</ele>
        <time>2026-05-20T14:31:31.000Z</time>
      </trkpt>
      <trkpt lat="43.4485" lon="6.60266">
        <ele>326</ele>
        <time>2026-05-20T14:33:22.000Z</time>
      </trkpt>
      <trkpt lat="43.44846" lon="6.60236">
        <ele>316</ele>
        <time>2026-05-20T14:35:31.000Z</time>
      </trkpt>
      <trkpt lat="43.44842" lon="6.60206">
        <ele>306</ele>
        <time>2026-05-20T14:37:01.000Z</time>
      </trkpt>
      <trkpt lat="43.44832" lon="6.60179">
        <ele>298</ele>
        <time>2026-05-20T14:38:28.000Z</time>
      </trkpt>
      <trkpt lat="43.44824" lon="6.60149">
        <ele>290</ele>
        <time>2026-05-20T14:39:46.000Z</time>
      </trkpt>
      <trkpt lat="43.44813" lon="6.60123">
        <ele>282</ele>
        <time>2026-05-20T14:40:46.000Z</time>
      </trkpt>
      <trkpt lat="43.44794" lon="6.60105">
        <ele>275</ele>
        <time>2026-05-20T14:41:31.000Z</time>
      </trkpt>
      <trkpt lat="43.44773" lon="6.60092">
        <ele>269</ele>
        <time>2026-05-20T14:42:10.000Z</time>
      </trkpt>
      <trkpt lat="43.44751" lon="6.6008">
        <ele>263</ele>
        <time>2026-05-20T14:42:40.000Z</time>
      </trkpt>
      <trkpt lat="43.44729" lon="6.60071">
        <ele>259</ele>
        <time>2026-05-20T15:03:27.000Z</time>
      </trkpt>
      <trkpt lat="43.44708" lon="6.60077">
        <ele>255</ele>
        <time>2026-05-20T15:04:03.000Z</time>
      </trkpt>
      <trkpt lat="43.44688" lon="6.60093">
        <ele>252</ele>
        <time>2026-05-20T15:04:27.000Z</time>
      </trkpt>
      <trkpt lat="43.44671" lon="6.60111">
        <ele>249</ele>
        <time>2026-05-20T15:04:51.000Z</time>
      </trkpt>
      <trkpt lat="43.44652" lon="6.60099">
        <ele>246</ele>
        <time>2026-05-20T15:05:12.000Z</time>
      </trkpt>
      <trkpt lat="43.44636" lon="6.60075">
        <ele>244</ele>
        <time>2026-05-20T15:05:33.000Z</time>
      </trkpt>
      <trkpt lat="43.44635" lon="6.60045">
        <ele>242</ele>
        <time>2026-05-20T15:05:57.000Z</time>
      </trkpt>
      <trkpt lat="43.4464" lon="6.60014">
        <ele>240</ele>
        <time>2026-05-20T15:06:18.000Z</time>
      </trkpt>
      <trkpt lat="43.44641" lon="6.59982">
        <ele>238</ele>
        <time>2026-05-20T15:06:39.000Z</time>
      </trkpt>
      <trkpt lat="43.44648" lon="6.59953">
        <ele>236</ele>
        <time>2026-05-20T15:07:00.000Z</time>
      </trkpt>
      <trkpt lat="43.44661" lon="6.59926">
        <ele>234</ele>
        <time>2026-05-20T15:07:24.000Z</time>
      </trkpt>
      <trkpt lat="43.4468" lon="6.59908">
        <ele>232</ele>
        <time>2026-05-20T15:07:45.000Z</time>
      </trkpt>
      <trkpt lat="43.44698" lon="6.59886">
        <ele>230</ele>
        <time>2026-05-20T15:08:06.000Z</time>
      </trkpt>
      <trkpt lat="43.44701" lon="6.59855">
        <ele>227</ele>
        <time>2026-05-20T15:08:27.000Z</time>
      </trkpt>
      <trkpt lat="43.44708" lon="6.59826">
        <ele>225</ele>
        <time>2026-05-20T15:09:18.000Z</time>
      </trkpt>
      <trkpt lat="43.44705" lon="6.59796">
        <ele>223</ele>
        <time>2026-05-20T15:11:57.000Z</time>
      </trkpt>
      <trkpt lat="43.44685" lon="6.59782">
        <ele>222</ele>
        <time>2026-05-20T15:12:27.000Z</time>
      </trkpt>
      <trkpt lat="43.44664" lon="6.59794">
        <ele>220</ele>
        <time>2026-05-20T15:12:51.000Z</time>
      </trkpt>
      <trkpt lat="43.44644" lon="6.59812">
        <ele>218</ele>
        <time>2026-05-20T15:13:18.000Z</time>
      </trkpt>
      <trkpt lat="43.44621" lon="6.59823">
        <ele>216</ele>
        <time>2026-05-20T15:13:42.000Z</time>
      </trkpt>
      <trkpt lat="43.44599" lon="6.59826">
        <ele>214</ele>
        <time>2026-05-20T15:14:06.000Z</time>
      </trkpt>
      <trkpt lat="43.44578" lon="6.59817">
        <ele>211</ele>
        <time>2026-05-20T15:14:33.000Z</time>
      </trkpt>
      <trkpt lat="43.44555" lon="6.59808">
        <ele>208</ele>
        <time>2026-05-20T15:15:06.000Z</time>
      </trkpt>
      <trkpt lat="43.44532" lon="6.59811">
        <ele>206</ele>
        <time>2026-05-20T15:15:39.000Z</time>
      </trkpt>
      <trkpt lat="43.4451" lon="6.59824">
        <ele>203</ele>
        <time>2026-05-20T15:16:09.000Z</time>
      </trkpt>
      <trkpt lat="43.44488" lon="6.59832">
        <ele>200</ele>
        <time>2026-05-20T15:16:36.000Z</time>
      </trkpt>
      <trkpt lat="43.44466" lon="6.5984">
        <ele>198</ele>
        <time>2026-05-20T15:17:09.000Z</time>
      </trkpt>
      <trkpt lat="43.4445" lon="6.59862">
        <ele>196</ele>
        <time>2026-05-20T15:17:39.000Z</time>
      </trkpt>
      <trkpt lat="43.44437" lon="6.5989">
        <ele>193</ele>
        <time>2026-05-20T15:18:06.000Z</time>
      </trkpt>
      <trkpt lat="43.44424" lon="6.59919">
        <ele>190</ele>
        <time>2026-05-20T15:18:30.000Z</time>
      </trkpt>
      <trkpt lat="43.44409" lon="6.59943">
        <ele>187</ele>
        <time>2026-05-20T15:18:53.000Z</time>
      </trkpt>
      <trkpt lat="43.44393" lon="6.59966">
        <ele>184</ele>
        <time>2026-05-20T15:22:35.000Z</time>
      </trkpt>
      <trkpt lat="43.44382" lon="6.59994">
        <ele>181</ele>
        <time>2026-05-20T15:23:23.000Z</time>
      </trkpt>
      <trkpt lat="43.44371" lon="6.60024">
        <ele>178</ele>
        <time>2026-05-20T15:23:56.000Z</time>
      </trkpt>
      <trkpt lat="43.44367" lon="6.60056">
        <ele>176</ele>
        <time>2026-05-20T15:24:29.000Z</time>
      </trkpt>
      <trkpt lat="43.44362" lon="6.60086">
        <ele>175</ele>
        <time>2026-05-20T15:24:59.000Z</time>
      </trkpt>
      <trkpt lat="43.44349" lon="6.60111">
        <ele>173</ele>
        <time>2026-05-20T15:25:26.000Z</time>
      </trkpt>
      <trkpt lat="43.4433" lon="6.6013">
        <ele>171</ele>
        <time>2026-05-20T15:25:53.000Z</time>
      </trkpt>
      <trkpt lat="43.44309" lon="6.60141">
        <ele>169</ele>
        <time>2026-05-20T15:26:26.000Z</time>
      </trkpt>
      <trkpt lat="43.44287" lon="6.60152">
        <ele>167</ele>
        <time>2026-05-20T15:26:59.000Z</time>
      </trkpt>
      <trkpt lat="43.4427" lon="6.60173">
        <ele>164</ele>
        <time>2026-05-20T15:27:20.000Z</time>
      </trkpt>
      <trkpt lat="43.4426" lon="6.60201">
        <ele>161</ele>
        <time>2026-05-20T15:27:41.000Z</time>
      </trkpt>
      <trkpt lat="43.44252" lon="6.60231">
        <ele>158</ele>
        <time>2026-05-20T15:28:08.000Z</time>
      </trkpt>
      <trkpt lat="43.44243" lon="6.60261">
        <ele>155</ele>
        <time>2026-05-20T15:28:35.000Z</time>
      </trkpt>
      <trkpt lat="43.44237" lon="6.60291">
        <ele>153</ele>
        <time>2026-05-20T15:29:23.000Z</time>
      </trkpt>
      <trkpt lat="43.44235" lon="6.60323">
        <ele>150</ele>
        <time>2026-05-20T15:30:05.000Z</time>
      </trkpt>
      <trkpt lat="43.4423" lon="6.60353">
        <ele>148</ele>
        <time>2026-05-20T15:30:38.000Z</time>
      </trkpt>
      <trkpt lat="43.44219" lon="6.6038">
        <ele>145</ele>
        <time>2026-05-20T15:31:05.000Z</time>
      </trkpt>
      <trkpt lat="43.44208" lon="6.60406">
        <ele>143</ele>
        <time>2026-05-20T15:31:35.000Z</time>
      </trkpt>
      <trkpt lat="43.44209" lon="6.60438">
        <ele>141</ele>
        <time>2026-05-20T15:32:14.000Z</time>
      </trkpt>
      <trkpt lat="43.44211" lon="6.60472">
        <ele>139</ele>
        <time>2026-05-20T15:32:38.000Z</time>
      </trkpt>
      <trkpt lat="43.4421" lon="6.60504">
        <ele>138</ele>
        <time>2026-05-20T15:33:11.000Z</time>
      </trkpt>
      <trkpt lat="43.44206" lon="6.60537">
        <ele>137</ele>
        <time>2026-05-20T15:33:41.000Z</time>
      </trkpt>
      <trkpt lat="43.44202" lon="6.60569">
        <ele>136</ele>
        <time>2026-05-20T15:34:14.000Z</time>
      </trkpt>
      <trkpt lat="43.44195" lon="6.60599">
        <ele>135</ele>
        <time>2026-05-20T15:34:41.000Z</time>
      </trkpt>
      <trkpt lat="43.44187" lon="6.60629">
        <ele>134</ele>
        <time>2026-05-20T15:35:11.000Z</time>
      </trkpt>
      <trkpt lat="43.4418" lon="6.60661">
        <ele>133</ele>
        <time>2026-05-20T15:35:38.000Z</time>
      </trkpt>
      <trkpt lat="43.44175" lon="6.60694">
        <ele>133</ele>
        <time>2026-05-20T15:36:02.000Z</time>
      </trkpt>
      <trkpt lat="43.44174" lon="6.60726">
        <ele>133</ele>
        <time>2026-05-20T15:36:23.000Z</time>
      </trkpt>
      <trkpt lat="43.44172" lon="6.60759">
        <ele>133</ele>
        <time>2026-05-20T15:36:44.000Z</time>
      </trkpt>
      <trkpt lat="43.4417" lon="6.60792">
        <ele>133</ele>
        <time>2026-05-20T15:37:05.000Z</time>
      </trkpt>
      <trkpt lat="43.44182" lon="6.60821">
        <ele>134</ele>
        <time>2026-05-20T15:37:29.000Z</time>
      </trkpt>
      <trkpt lat="43.44201" lon="6.60844">
        <ele>134</ele>
        <time>2026-05-20T15:37:50.000Z</time>
      </trkpt>
      <trkpt lat="43.44221" lon="6.60862">
        <ele>134</ele>
        <time>2026-05-20T15:38:11.000Z</time>
      </trkpt>
      <trkpt lat="43.44237" lon="6.60885">
        <ele>134</ele>
        <time>2026-05-20T15:40:38.000Z</time>
      </trkpt>
      <trkpt lat="43.44249" lon="6.60911">
        <ele>134</ele>
        <time>2026-05-20T15:41:02.000Z</time>
      </trkpt>
      <trkpt lat="43.44258" lon="6.60942">
        <ele>134</ele>
        <time>2026-05-20T15:41:26.000Z</time>
      </trkpt>
      <trkpt lat="43.44264" lon="6.60973">
        <ele>133</ele>
        <time>2026-05-20T15:41:47.000Z</time>
      </trkpt>
      <trkpt lat="43.44275" lon="6.61004">
        <ele>132</ele>
        <time>2026-05-20T15:42:08.000Z</time>
      </trkpt>
      <trkpt lat="43.44286" lon="6.61034">
        <ele>131</ele>
        <time>2026-05-20T15:42:32.000Z</time>
      </trkpt>
      <trkpt lat="43.44299" lon="6.61063">
        <ele>130</ele>
        <time>2026-05-20T15:42:56.000Z</time>
      </trkpt>
      <trkpt lat="43.44314" lon="6.61089">
        <ele>129</ele>
        <time>2026-05-20T15:43:20.000Z</time>
      </trkpt>
      <trkpt lat="43.44326" lon="6.61118">
        <ele>127</ele>
        <time>2026-05-20T15:43:44.000Z</time>
      </trkpt>
      <trkpt lat="43.44323" lon="6.6115">
        <ele>126</ele>
        <time>2026-05-20T15:44:11.000Z</time>
      </trkpt>
      <trkpt lat="43.44316" lon="6.61181">
        <ele>125</ele>
        <time>2026-05-20T15:44:38.000Z</time>
      </trkpt>
      <trkpt lat="43.44321" lon="6.61209">
        <ele>124</ele>
        <time>2026-05-20T15:45:05.000Z</time>
      </trkpt>
      <trkpt lat="43.44338" lon="6.61227">
        <ele>122</ele>
        <time>2026-05-20T15:45:32.000Z</time>
      </trkpt>
      <trkpt lat="43.44361" lon="6.61232">
        <ele>121</ele>
        <time>2026-05-20T15:45:59.000Z</time>
      </trkpt>
      <trkpt lat="43.44384" lon="6.61241">
        <ele>119</ele>
        <time>2026-05-20T15:46:23.000Z</time>
      </trkpt>
      <trkpt lat="43.44402" lon="6.61259">
        <ele>116</ele>
        <time>2026-05-20T15:46:47.000Z</time>
      </trkpt>
      <trkpt lat="43.44414" lon="6.61281">
        <ele>114</ele>
        <time>2026-05-20T15:47:20.000Z</time>
      </trkpt>
      <trkpt lat="43.44404" lon="6.61303">
        <ele>111</ele>
        <time>2026-05-20T15:47:50.000Z</time>
      </trkpt>
      <trkpt lat="43.44399" lon="6.61332">
        <ele>109</ele>
        <time>2026-05-20T15:48:20.000Z</time>
      </trkpt>
      <trkpt lat="43.44385" lon="6.6135">
        <ele>106</ele>
        <time>2026-05-20T15:48:53.000Z</time>
      </trkpt>
      <trkpt lat="43.44369" lon="6.61338">
        <ele>104</ele>
        <time>2026-05-20T15:49:23.000Z</time>
      </trkpt>
      <trkpt lat="43.44353" lon="6.61353">
        <ele>102</ele>
        <time>2026-05-20T15:49:56.000Z</time>
      </trkpt>
      <trkpt lat="43.44361" lon="6.61379">
        <ele>101</ele>
        <time>2026-05-20T15:50:26.000Z</time>
      </trkpt>
      <trkpt lat="43.44379" lon="6.61397">
        <ele>98</ele>
        <time>2026-05-20T15:50:53.000Z</time>
      </trkpt>
      <trkpt lat="43.44403" lon="6.61407">
        <ele>96</ele>
        <time>2026-05-20T15:51:20.000Z</time>
      </trkpt>
      <trkpt lat="43.44424" lon="6.6142">
        <ele>94</ele>
        <time>2026-05-20T15:51:47.000Z</time>
      </trkpt>
      <trkpt lat="43.44434" lon="6.61445">
        <ele>91</ele>
        <time>2026-05-20T15:52:14.000Z</time>
      </trkpt>
      <trkpt lat="43.44425" lon="6.61471">
        <ele>89</ele>
        <time>2026-05-20T15:52:41.000Z</time>
      </trkpt>
      <trkpt lat="43.44407" lon="6.61493">
        <ele>86</ele>
        <time>2026-05-20T15:53:17.000Z</time>
      </trkpt>
      <trkpt lat="43.44389" lon="6.61513">
        <ele>84</ele>
        <time>2026-05-20T15:53:41.000Z</time>
      </trkpt>
      <trkpt lat="43.4438" lon="6.61542">
        <ele>81</ele>
        <time>2026-05-20T15:54:05.000Z</time>
      </trkpt>
      <trkpt lat="43.44376" lon="6.61572">
        <ele>77</ele>
        <time>2026-05-20T15:54:29.000Z</time>
      </trkpt>
      <trkpt lat="43.4437" lon="6.61603">
        <ele>74</ele>
        <time>2026-05-20T15:54:53.000Z</time>
      </trkpt>
      <trkpt lat="43.44354" lon="6.61625">
        <ele>71</ele>
        <time>2026-05-20T15:55:20.000Z</time>
      </trkpt>
      <trkpt lat="43.44351" lon="6.61656">
        <ele>69</ele>
        <time>2026-05-20T15:56:08.000Z</time>
      </trkpt>
      <trkpt lat="43.44351" lon="6.6169">
        <ele>68</ele>
        <time>2026-05-20T15:56:38.000Z</time>
      </trkpt>
      <trkpt lat="43.44356" lon="6.61723">
        <ele>66</ele>
        <time>2026-05-20T15:57:02.000Z</time>
      </trkpt>
      <trkpt lat="43.44362" lon="6.61755">
        <ele>66</ele>
        <time>2026-05-20T15:57:26.000Z</time>
      </trkpt>
      <trkpt lat="43.44367" lon="6.61788">
        <ele>65</ele>
        <time>2026-05-20T15:57:47.000Z</time>
      </trkpt>
      <trkpt lat="43.4437" lon="6.61819">
        <ele>64</ele>
        <time>2026-05-20T15:58:08.000Z</time>
      </trkpt>
      <trkpt lat="43.4437" lon="6.61852">
        <ele>63</ele>
        <time>2026-05-20T15:58:35.000Z</time>
      </trkpt>
      <trkpt lat="43.44368" lon="6.61884">
        <ele>62</ele>
        <time>2026-05-20T15:58:56.000Z</time>
      </trkpt>
      <trkpt lat="43.4437" lon="6.61917">
        <ele>62</ele>
        <time>2026-05-20T15:59:29.000Z</time>
      </trkpt>
      <trkpt lat="43.44377" lon="6.61947">
        <ele>62</ele>
        <time>2026-05-20T16:00:05.000Z</time>
      </trkpt>
      <trkpt lat="43.44387" lon="6.61976">
        <ele>61</ele>
        <time>2026-05-20T16:00:26.000Z</time>
      </trkpt>
      <trkpt lat="43.44396" lon="6.62004">
        <ele>61</ele>
        <time>2026-05-20T16:00:44.000Z</time>
      </trkpt>
      <trkpt lat="43.44415" lon="6.62021">
        <ele>61</ele>
        <time>2026-05-20T16:01:05.000Z</time>
      </trkpt>
      <trkpt lat="43.44439" lon="6.6202">
        <ele>61</ele>
        <time>2026-05-20T16:01:26.000Z</time>
      </trkpt>
      <trkpt lat="43.44462" lon="6.62019">
        <ele>61</ele>
        <time>2026-05-20T16:01:44.000Z</time>
      </trkpt>
      <trkpt lat="43.44485" lon="6.62024">
        <ele>61</ele>
        <time>2026-05-20T16:02:02.000Z</time>
      </trkpt>
      <trkpt lat="43.44508" lon="6.62034">
        <ele>61</ele>
        <time>2026-05-20T16:02:20.000Z</time>
      </trkpt>
      <trkpt lat="43.44531" lon="6.62043">
        <ele>61</ele>
        <time>2026-05-20T16:02:38.000Z</time>
      </trkpt>
      <trkpt lat="43.44554" lon="6.62049">
        <ele>61</ele>
        <time>2026-05-20T16:02:56.000Z</time>
      </trkpt>
      <trkpt lat="43.44578" lon="6.62055">
        <ele>61</ele>
        <time>2026-05-20T16:03:14.000Z</time>
      </trkpt>
      <trkpt lat="43.44604" lon="6.62061">
        <ele>60</ele>
        <time>2026-05-20T16:03:32.000Z</time>
      </trkpt>
      <trkpt lat="43.44629" lon="6.62064">
        <ele>60</ele>
        <time>2026-05-20T16:03:50.000Z</time>
      </trkpt>
      <trkpt lat="43.44652" lon="6.62068">
        <ele>60</ele>
        <time>2026-05-20T16:04:05.000Z</time>
      </trkpt>
      <trkpt lat="43.44675" lon="6.62079">
        <ele>59</ele>
        <time>2026-05-20T16:04:23.000Z</time>
      </trkpt>
      <trkpt lat="43.44693" lon="6.62101">
        <ele>59</ele>
        <time>2026-05-20T16:04:41.000Z</time>
      </trkpt>
      <trkpt lat="43.4471" lon="6.62123">
        <ele>59</ele>
        <time>2026-05-20T16:04:56.000Z</time>
      </trkpt>
      <trkpt lat="43.4473" lon="6.62143">
        <ele>59</ele>
        <time>2026-05-20T16:05:14.000Z</time>
      </trkpt>
      <trkpt lat="43.4475" lon="6.62163">
        <ele>59</ele>
        <time>2026-05-20T16:05:32.000Z</time>
      </trkpt>
      <trkpt lat="43.44768" lon="6.62187">
        <ele>59</ele>
        <time>2026-05-20T16:05:50.000Z</time>
      </trkpt>
      <trkpt lat="43.44783" lon="6.62215">
        <ele>59</ele>
        <time>2026-05-20T16:06:05.000Z</time>
      </trkpt>
      <trkpt lat="43.44802" lon="6.62239">
        <ele>59</ele>
        <time>2026-05-20T16:06:20.000Z</time>
      </trkpt>
      <trkpt lat="43.44821" lon="6.62256">
        <ele>59</ele>
        <time>2026-05-20T16:06:32.000Z</time>
      </trkpt>
      <trkpt lat="43.44842" lon="6.62269">
        <ele>59</ele>
        <time>2026-05-20T16:06:44.000Z</time>
      </trkpt>
      <trkpt lat="43.44861" lon="6.62292">
        <ele>59</ele>
        <time>2026-05-20T16:06:59.000Z</time>
      </trkpt>
      <trkpt lat="43.44864" lon="6.62325">
        <ele>59</ele>
        <time>2026-05-20T16:07:14.000Z</time>
      </trkpt>
      <trkpt lat="43.44864" lon="6.62361">
        <ele>59</ele>
        <time>2026-05-20T16:07:29.000Z</time>
      </trkpt>
      <trkpt lat="43.4487" lon="6.62395">
        <ele>58</ele>
        <time>2026-05-20T16:07:44.000Z</time>
      </trkpt>
      <trkpt lat="43.44875" lon="6.62428">
        <ele>58</ele>
        <time>2026-05-20T16:07:59.000Z</time>
      </trkpt>
      <trkpt lat="43.44877" lon="6.62462">
        <ele>58</ele>
        <time>2026-05-20T16:08:14.000Z</time>
      </trkpt>
      <trkpt lat="43.44879" lon="6.62496">
        <ele>58</ele>
        <time>2026-05-20T16:08:29.000Z</time>
      </trkpt>
      <trkpt lat="43.44881" lon="6.62529">
        <ele>58</ele>
        <time>2026-05-20T16:08:44.000Z</time>
      </trkpt>
      <trkpt lat="43.44881" lon="6.62564">
        <ele>58</ele>
        <time>2026-05-20T16:09:02.000Z</time>
      </trkpt>
      <trkpt lat="43.44882" lon="6.62596">
        <ele>58</ele>
        <time>2026-05-20T16:09:17.000Z</time>
      </trkpt>
      <trkpt lat="43.44884" lon="6.62626">
        <ele>58</ele>
        <time>2026-05-20T16:09:32.000Z</time>
      </trkpt>
      <trkpt lat="43.44889" lon="6.62657">
        <ele>58</ele>
        <time>2026-05-20T16:09:47.000Z</time>
      </trkpt>
      <trkpt lat="43.44889" lon="6.62688">
        <ele>58</ele>
        <time>2026-05-20T16:10:02.000Z</time>
      </trkpt>
      <trkpt lat="43.44884" lon="6.62723">
        <ele>58</ele>
        <time>2026-05-20T16:10:20.000Z</time>
      </trkpt>
      <trkpt lat="43.4488" lon="6.62753">
        <ele>58</ele>
        <time>2026-05-20T16:10:36.000Z</time>
      </trkpt>
      <trkpt lat="43.44874" lon="6.62785">
        <ele>57</ele>
        <time>2026-05-20T16:10:54.000Z</time>
      </trkpt>
      <trkpt lat="43.44869" lon="6.62819">
        <ele>57</ele>
        <time>2026-05-20T16:11:12.000Z</time>
      </trkpt>
      <trkpt lat="43.44865" lon="6.62852">
        <ele>57</ele>
        <time>2026-05-20T16:11:30.000Z</time>
      </trkpt>
      <trkpt lat="43.4486" lon="6.62885">
        <ele>57</ele>
        <time>2026-05-20T16:11:48.000Z</time>
      </trkpt>
      <trkpt lat="43.44854" lon="6.62916">
        <ele>57</ele>
        <time>2026-05-20T16:12:03.000Z</time>
      </trkpt>
      <trkpt lat="43.44848" lon="6.62949">
        <ele>57</ele>
        <time>2026-05-20T16:12:21.000Z</time>
      </trkpt>
      <trkpt lat="43.44842" lon="6.62982">
        <ele>57</ele>
        <time>2026-05-20T16:12:39.000Z</time>
      </trkpt>
      <trkpt lat="43.44835" lon="6.63016">
        <ele>57</ele>
        <time>2026-05-20T16:12:57.000Z</time>
      </trkpt>
      <trkpt lat="43.44829" lon="6.6305">
        <ele>57</ele>
        <time>2026-05-20T16:13:15.000Z</time>
      </trkpt>
      <trkpt lat="43.44822" lon="6.63082">
        <ele>57</ele>
        <time>2026-05-20T16:13:33.000Z</time>
      </trkpt>
      <trkpt lat="43.44815" lon="6.63116">
        <ele>58</ele>
        <time>2026-05-20T16:13:51.000Z</time>
      </trkpt>
      <trkpt lat="43.44808" lon="6.63151">
        <ele>58</ele>
        <time>2026-05-20T16:14:09.000Z</time>
      </trkpt>
      <trkpt lat="43.44802" lon="6.63184">
        <ele>58</ele>
        <time>2026-05-20T16:14:27.000Z</time>
      </trkpt>
      <trkpt lat="43.44799" lon="6.63216">
        <ele>58</ele>
        <time>2026-05-20T16:14:45.000Z</time>
      </trkpt>
      <trkpt lat="43.44807" lon="6.63247">
        <ele>58</ele>
        <time>2026-05-20T16:15:06.000Z</time>
      </trkpt>
      <trkpt lat="43.44833" lon="6.63251">
        <ele>57</ele>
        <time>2026-05-20T16:15:27.000Z</time>
      </trkpt>
    </trkseg>
  </trk>
</gpx>